createdAt,value
2022-08-16T00:01:33.733Z,51.20
2022-08-16T00:04:05.077Z,51.10
2022-08-16T00:06:36.516Z,51.00
2022-08-16T00:09:10.841Z,50.90
2022-08-16T00:11:40.067Z,50.90
2022-08-16T00:14:12.833Z,51.10
2022-08-16T00:17:05.551Z,51.30
2022-08-16T00:19:41.717Z,51.50
2022-08-16T00:22:13.780Z,51.30
2022-08-16T00:24:46.804Z,51.30
2022-08-16T00:27:17.446Z,51.70
2022-08-16T00:29:46.318Z,51.80
2022-08-16T00:32:18.163Z,51.90
2022-08-16T00:34:53.801Z,52.10
2022-08-16T00:37:57.220Z,52.30
2022-08-16T00:40:34.163Z,52.40
2022-08-16T00:43:12.072Z,52.20
2022-08-16T00:46:00.257Z,52.10
2022-08-16T00:48:43.898Z,52.00
2022-08-16T00:51:17.528Z,52.00
2022-08-16T00:53:48.611Z,51.70
2022-08-16T00:56:58.647Z,51.20
2022-08-16T00:59:16.783Z,51.00
2022-08-16T01:01:46.839Z,50.80
2022-08-16T01:04:29.661Z,50.50
2022-08-16T01:07:01.902Z,50.70
2022-08-16T01:09:37.138Z,50.80
2022-08-16T01:12:10.834Z,50.70
2022-08-16T01:14:50.794Z,50.60
2022-08-16T01:17:24.402Z,50.50
2022-08-16T01:19:58.177Z,50.60
2022-08-16T01:22:52.367Z,50.90
2022-08-16T01:25:33.969Z,50.90
2022-08-16T01:28:07.956Z,51.80
2022-08-16T01:30:49.979Z,52.80
2022-08-16T01:33:22.354Z,52.60
2022-08-16T01:35:58.490Z,52.80
2022-08-16T01:38:32.390Z,53.00
2022-08-16T01:41:07.026Z,53.30
2022-08-16T01:43:39.216Z,53.60
2022-08-16T01:46:37.766Z,52.90
2022-08-16T01:49:10.878Z,52.40
2022-08-16T01:51:44.974Z,52.10
2022-08-16T01:54:15.508Z,52.10
2022-08-16T01:56:45.888Z,52.10
2022-08-16T01:59:18.557Z,52.10
2022-08-16T02:01:52.553Z,52.30
2022-08-16T02:04:49.249Z,52.60
2022-08-16T02:07:18.715Z,52.40
2022-08-16T02:09:58.701Z,52.70
2022-08-16T02:12:50.125Z,52.40
2022-08-16T02:15:25.418Z,52.30
2022-08-16T02:17:55.074Z,52.10
2022-08-16T02:20:27.893Z,51.90
2022-08-16T02:22:57.395Z,51.80
2022-08-16T02:25:52.858Z,51.90
2022-08-16T02:28:19.357Z,52.00
2022-08-16T02:30:51.592Z,51.80
2022-08-16T02:33:24.514Z,51.70
2022-08-16T02:36:14.472Z,51.90
2022-08-16T02:39:01.082Z,52.10
2022-08-16T02:41:29.598Z,52.00
2022-08-16T02:44:00.583Z,52.00
2022-08-16T02:46:32.689Z,52.10
2022-08-16T02:49:02.677Z,52.00
2022-08-16T02:51:31.461Z,52.00
2022-08-16T02:54:00.252Z,51.90
2022-08-16T02:56:32.455Z,51.60
2022-08-16T02:59:03.499Z,51.20
2022-08-16T03:01:41.660Z,51.10
2022-08-16T03:04:40.951Z,51.10
2022-08-16T03:06:59.199Z,51.40
2022-08-16T03:09:29.847Z,51.30
2022-08-16T03:12:02.903Z,51.10
2022-08-16T03:14:34.167Z,51.10
2022-08-16T03:17:13.256Z,51.30
2022-08-16T03:19:48.391Z,51.20
2022-08-16T03:22:29.603Z,51.10
2022-08-16T03:25:01.557Z,51.40
2022-08-16T03:27:34.352Z,51.50
2022-08-16T03:30:15.296Z,51.70
2022-08-16T03:32:47.142Z,51.60
2022-08-16T03:35:18.168Z,51.50
2022-08-16T03:38:02.492Z,51.40
2022-08-16T03:40:34.664Z,51.40
2022-08-16T03:43:19.690Z,51.40
2022-08-16T03:45:53.603Z,51.60
2022-08-16T03:48:37.120Z,51.70
2022-08-16T03:51:12.877Z,51.90
2022-08-16T03:53:43.286Z,51.90
2022-08-16T03:56:19.912Z,51.90
2022-08-16T03:58:52.678Z,51.60
2022-08-16T04:01:24.614Z,51.60
2022-08-16T04:03:58.222Z,51.10
2022-08-16T04:06:28.053Z,51.00
2022-08-16T04:08:56.569Z,51.00
2022-08-16T04:11:25.441Z,51.00
2022-08-16T04:14:00.120Z,51.10
2022-08-16T04:16:38.583Z,51.20
2022-08-16T04:19:07.043Z,51.20
2022-08-16T04:21:45.995Z,51.20
2022-08-16T04:24:16.696Z,51.90
2022-08-16T04:26:46.013Z,51.20
2022-08-16T04:29:21.710Z,51.50
2022-08-16T04:31:56.901Z,51.50
2022-08-16T04:34:29.582Z,51.60
2022-08-16T04:37:01.409Z,51.30
2022-08-16T04:39:36.978Z,50.90
2022-08-16T04:42:17.612Z,50.80
2022-08-16T04:44:54.591Z,50.80
2022-08-16T04:47:31.432Z,50.70
2022-08-16T04:50:02.549Z,50.70
2022-08-16T04:52:34.581Z,51.10
2022-08-16T04:55:11.940Z,51.20
2022-08-16T04:57:41.755Z,51.10
2022-08-16T05:00:25.241Z,50.80
2022-08-16T05:03:07.295Z,50.60
2022-08-16T05:05:45.108Z,50.20
2022-08-16T05:08:29.700Z,50.20
2022-08-16T05:11:05.289Z,50.20
2022-08-16T05:13:41.837Z,50.40
2022-08-16T05:16:20.375Z,50.20
2022-08-16T05:18:56.485Z,50.20
2022-08-16T05:21:27.072Z,50.00
2022-08-16T05:24:06.170Z,50.10
2022-08-16T05:26:37.526Z,50.00
2022-08-16T05:29:15.197Z,49.90
2022-08-16T05:31:44.167Z,49.50
2022-08-16T05:34:21.366Z,49.70
2022-08-16T05:36:53.104Z,50.00
2022-08-16T05:39:22.398Z,50.40
2022-08-16T05:41:52.146Z,49.70
2022-08-16T05:44:24.859Z,49.60
2022-08-16T05:47:00.635Z,49.50
2022-08-16T05:49:38.784Z,49.00
2022-08-16T05:52:11.276Z,48.40
2022-08-16T05:54:46.722Z,48.10
2022-08-16T05:57:17.045Z,48.20
2022-08-16T05:59:50.285Z,48.00
2022-08-16T06:02:39.686Z,47.60
2022-08-16T06:05:11.811Z,47.10
2022-08-16T06:07:43.458Z,46.00
2022-08-16T06:10:13.391Z,45.10
2022-08-16T06:12:42.101Z,45.10
2022-08-16T06:15:16.503Z,44.80
2022-08-16T06:17:46.461Z,44.80
2022-08-16T06:20:23.618Z,44.60
2022-08-16T06:22:58.859Z,45.00
2022-08-16T06:25:36.643Z,45.20
2022-08-16T06:28:16.991Z,44.80
2022-08-16T06:30:58.899Z,45.10
2022-08-16T06:33:30.219Z,44.90
2022-08-16T06:36:13.937Z,44.20
2022-08-16T06:38:52.277Z,42.90
2022-08-16T06:41:27.678Z,42.60
2022-08-16T06:43:57.229Z,42.80
2022-08-16T06:46:31.782Z,41.90
2022-08-16T06:49:01.654Z,41.70
2022-08-16T06:51:45.952Z,40.90
2022-08-16T06:54:17.660Z,40.30
2022-08-16T06:56:46.980Z,39.40
2022-08-16T06:59:20.909Z,38.90
2022-08-16T07:01:58.058Z,38.80
2022-08-16T07:04:32.669Z,38.60
2022-08-16T07:07:09.865Z,37.60
2022-08-16T07:09:38.977Z,37.20
2022-08-16T07:12:08.402Z,35.70
2022-08-16T07:14:36.843Z,35.30
2022-08-16T07:17:12.952Z,34.70
2022-08-16T07:20:03.907Z,34.70
2022-08-16T07:22:37.274Z,33.70
2022-08-16T07:25:13.630Z,33.90
2022-08-16T07:27:43.575Z,34.00
2022-08-16T07:30:45.007Z,33.70
2022-08-16T07:33:07.232Z,32.90
2022-08-16T07:35:36.152Z,32.90
2022-08-16T07:38:07.455Z,32.60
2022-08-16T07:40:59.431Z,32.20
2022-08-16T07:43:28.938Z,31.90
2022-08-16T07:45:58.801Z,31.80
2022-08-16T07:48:30.080Z,31.20
2022-08-16T07:51:01.566Z,30.50
2022-08-16T07:53:43.704Z,29.60
2022-08-16T07:56:12.627Z,29.30
2022-08-16T07:58:43.364Z,28.90
2022-08-16T08:01:15.026Z,28.20
2022-08-16T08:03:48.796Z,27.00
2022-08-16T08:06:19.005Z,26.10
2022-08-16T08:08:51.329Z,25.20
2022-08-16T08:11:23.552Z,24.50
2022-08-16T08:13:54.417Z,24.10
2022-08-16T08:16:30.453Z,23.20
2022-08-16T08:19:02.369Z,20.30
2022-08-16T08:22:00.686Z,20.40
2022-08-16T08:24:32.154Z,21.90
2022-08-16T08:27:04.008Z,22.30
2022-08-16T08:29:36.937Z,19.90
2022-08-16T08:32:58.572Z,19.80
2022-08-16T08:35:00.502Z,18.90
2022-08-16T08:37:54.991Z,18.70
2022-08-16T08:40:27.330Z,18.30
2022-08-16T08:43:00.631Z,18.50
2022-08-16T08:45:52.695Z,18.10
2022-08-16T08:48:33.809Z,17.70
2022-08-16T08:51:05.810Z,17.90
2022-08-16T08:53:40.092Z,18.40
2022-08-16T08:56:22.829Z,17.30
2022-08-16T08:59:00.208Z,17.10
2022-08-16T09:01:36.895Z,17.50
2022-08-16T09:04:14.692Z,16.90
2022-08-16T09:06:47.397Z,16.90
2022-08-16T09:09:17.533Z,17.30
2022-08-16T09:12:04.431Z,17.30
2022-08-16T09:14:36.651Z,16.50
2022-08-16T09:17:11.965Z,16.50
2022-08-16T09:19:55.284Z,16.10
2022-08-16T09:22:27.876Z,16.00
2022-08-16T09:25:00.724Z,16.00
2022-08-16T09:27:57.272Z,16.70
2022-08-16T09:30:42.926Z,17.30
2022-08-16T09:33:19.886Z,17.50
2022-08-16T09:35:53.093Z,17.20
2022-08-16T09:38:32.128Z,16.70
2022-08-16T09:41:02.900Z,15.70
2022-08-16T09:43:59.114Z,15.50
2022-08-16T09:46:49.098Z,15.20
2022-08-16T09:49:12.329Z,15.40
2022-08-16T09:51:42.277Z,14.90
2022-08-16T09:54:16.806Z,15.40
2022-08-16T09:56:52.702Z,15.90
2022-08-16T09:59:25.894Z,16.40
2022-08-16T10:02:00.246Z,16.90
2022-08-16T10:04:53.071Z,16.50
2022-08-16T10:07:24.649Z,16.00
2022-08-16T10:09:56.038Z,16.40
2022-08-16T10:12:44.715Z,16.50
2022-08-16T10:15:21.121Z,15.30
2022-08-16T10:18:00.196Z,14.80
2022-08-16T10:20:35.437Z,14.80
2022-08-16T10:23:07.221Z,14.90
2022-08-16T10:27:20.627Z,13.60
2022-08-16T10:28:32.519Z,13.50
2022-08-16T10:31:16.970Z,13.50
2022-08-16T10:34:01.482Z,13.30
2022-08-16T10:36:39.405Z,13.60
2022-08-16T10:39:09.068Z,13.40
2022-08-16T10:41:37.678Z,13.60
2022-08-16T10:44:09.349Z,13.20
2022-08-16T10:46:42.148Z,11.70
2022-08-16T10:49:12.652Z,11.90
2022-08-16T10:52:02.555Z,13.00
2022-08-16T10:54:58.684Z,14.30
2022-08-16T10:57:24.749Z,14.90
2022-08-16T10:59:57.744Z,14.50
2022-08-16T11:02:57.653Z,14.60
2022-08-16T11:05:18.639Z,15.00
2022-08-16T11:07:52.658Z,15.20
2022-08-16T11:19:06.289Z,15.20
2022-08-16T11:24:42.937Z,14.90
2022-08-16T11:27:19.619Z,14.20
2022-08-16T11:29:53.001Z,14.60
2022-08-16T11:32:29.737Z,14.70
2022-08-16T11:35:10.455Z,14.70
2022-08-16T11:40:44.525Z,13.80
2022-08-16T11:43:16.669Z,13.50
2022-08-16T11:45:54.131Z,12.80
2022-08-16T11:48:26.156Z,11.70
2022-08-16T11:50:57.143Z,10.80
2022-08-16T11:53:27.086Z,11.00
2022-08-16T11:55:57.491Z,9.90
2022-08-16T11:58:32.189Z,9.50
2022-08-16T12:01:02.885Z,10.10
2022-08-16T12:03:35.356Z,10.10
2022-08-16T12:06:25.146Z,9.90
2022-08-16T12:09:01.081Z,10.40
2022-08-16T12:11:32.010Z,9.50
2022-08-16T12:14:02.081Z,8.80
2022-08-16T12:16:34.789Z,9.10
2022-08-16T12:19:05.047Z,9.30
2022-08-16T12:21:58.253Z,8.70
2022-08-16T12:24:24.494Z,8.60
2022-08-16T12:26:53.329Z,7.70
2022-08-16T12:29:22.935Z,7.80
2022-08-16T12:31:59.240Z,7.70
2022-08-16T12:34:30.444Z,7.80
2022-08-16T12:37:04.137Z,8.40
2022-08-16T12:39:35.081Z,7.90
2022-08-16T12:42:04.574Z,7.80
2022-08-16T12:44:32.995Z,7.40
2022-08-16T12:47:18.938Z,7.70
2022-08-16T12:49:48.598Z,8.20
2022-08-16T12:52:33.783Z,8.40
2022-08-16T12:55:11.428Z,8.60
2022-08-16T12:57:43.290Z,8.00
2022-08-16T13:00:23.305Z,7.50
2022-08-16T13:02:55.199Z,7.20
2022-08-16T13:05:24.549Z,7.40
2022-08-16T13:07:55.488Z,7.40
2022-08-16T13:10:37.014Z,7.00
2022-08-16T13:13:14.889Z,8.10
2022-08-16T13:15:51.726Z,7.30
2022-08-16T13:18:34.677Z,8.20
2022-08-16T13:21:06.493Z,8.70
2022-08-16T13:23:43.512Z,8.80
2022-08-16T13:26:17.247Z,8.90
2022-08-16T13:28:47.889Z,10.10
2022-08-16T13:31:17.139Z,10.20
2022-08-16T13:33:46.343Z,9.90
2022-08-16T13:36:45.762Z,8.80
2022-08-16T13:39:06.675Z,8.20
2022-08-16T13:41:35.248Z,8.60
2022-08-16T13:44:09.515Z,8.30
2022-08-16T13:46:38.892Z,8.50
2022-08-16T13:49:07.319Z,9.50
2022-08-16T13:51:35.983Z,10.20
2022-08-16T13:54:09.459Z,10.00
2022-08-16T13:56:39.968Z,10.10
2022-08-16T13:59:19.512Z,10.40
2022-08-16T14:01:54.611Z,9.20
2022-08-16T14:04:27.235Z,8.30
2022-08-16T14:06:57.865Z,7.70
2022-08-16T14:09:30.139Z,6.60
2022-08-16T14:12:00.907Z,6.60
2022-08-16T14:14:31.569Z,6.80
2022-08-16T14:17:01.657Z,5.80
2022-08-16T14:19:31.196Z,6.30
2022-08-16T14:22:14.069Z,5.10
2022-08-16T14:24:47.269Z,4.90
2022-08-16T14:27:17.860Z,5.30
2022-08-16T14:29:49.268Z,5.40
2022-08-16T14:32:32.600Z,5.70
2022-08-16T14:35:07.177Z,5.70
2022-08-16T14:37:36.917Z,5.60
2022-08-16T14:40:10.242Z,5.30
2022-08-16T14:42:41.253Z,4.80
2022-08-16T14:45:15.196Z,4.80
2022-08-16T14:47:43.927Z,4.00
2022-08-16T14:50:15.853Z,4.00
2022-08-16T14:52:56.760Z,3.90
2022-08-16T14:55:30.745Z,4.40
2022-08-16T14:58:00.034Z,4.40
2022-08-16T15:00:34.597Z,4.70
2022-08-16T15:03:10.663Z,5.00
2022-08-16T15:05:42.502Z,4.60
2022-08-16T15:08:12.195Z,4.70
2022-08-16T15:10:42.846Z,3.80
2022-08-16T15:13:15.377Z,4.10
2022-08-16T15:15:57.402Z,3.50
2022-08-16T15:18:31.972Z,3.70
2022-08-16T15:21:02.146Z,4.20
2022-08-16T15:23:34.091Z,4.40
2022-08-16T15:26:08.402Z,5.80
2022-08-16T15:28:38.163Z,5.80
2022-08-16T15:31:09.707Z,6.50
2022-08-16T15:33:43.613Z,5.90
2022-08-16T15:36:18.288Z,5.40
2022-08-16T15:39:03.089Z,5.70
2022-08-16T15:42:02.795Z,5.70
2022-08-16T15:44:50.913Z,5.70
2022-08-16T15:47:21.609Z,6.00
2022-08-16T15:49:55.653Z,6.30
2022-08-16T15:52:29.909Z,6.50
2022-08-16T15:55:12.980Z,6.80
2022-08-16T15:57:51.458Z,6.20
2022-08-16T16:00:22.264Z,5.90
2022-08-16T16:03:03.938Z,6.10
2022-08-16T16:05:37.249Z,6.60
2022-08-16T16:08:11.850Z,6.80
2022-08-16T16:10:43.308Z,7.40
2022-08-16T16:13:14.802Z,7.90
2022-08-16T16:15:47.284Z,8.70
2022-08-16T16:18:17.317Z,9.10
2022-08-16T16:20:50.504Z,9.30
2022-08-16T16:23:24.689Z,10.00
2022-08-16T16:25:54.748Z,10.40
2022-08-16T16:29:06.023Z,11.10
2022-08-16T16:31:20.396Z,11.50
2022-08-16T16:33:55.815Z,12.70
2022-08-16T16:36:29.308Z,13.30
2022-08-16T16:38:58.137Z,13.30
2022-08-16T16:41:30.449Z,13.60
2022-08-16T16:44:02.405Z,13.80
2022-08-16T16:46:42.907Z,13.60
2022-08-16T16:49:15.785Z,13.30
2022-08-16T16:51:49.975Z,12.40
2022-08-16T16:54:27.712Z,12.80
2022-08-16T16:56:58.545Z,11.80
2022-08-16T16:59:28.637Z,11.10
2022-08-16T17:02:38.585Z,10.90
2022-08-16T17:04:51.388Z,11.10
2022-08-16T17:07:24.262Z,10.90
2022-08-16T17:09:53.727Z,11.00
2022-08-16T17:12:24.564Z,10.80
2022-08-16T17:14:56.085Z,10.70
2022-08-16T17:17:25.493Z,10.60
2022-08-16T17:19:54.424Z,10.90
2022-08-16T17:22:24.359Z,11.00
2022-08-16T17:25:01.781Z,11.10
2022-08-16T17:27:33.050Z,11.50
2022-08-16T17:30:15.594Z,12.00
2022-08-16T17:32:50.764Z,12.20
2022-08-16T17:35:33.696Z,13.50
2022-08-16T17:39:27.327Z,14.20
2022-08-16T17:40:59.921Z,14.60
2022-08-16T17:43:34.342Z,15.30
2022-08-16T17:46:41.309Z,15.70
2022-08-16T17:48:57.348Z,16.10
2022-08-16T17:51:27.241Z,16.50
2022-08-16T17:53:55.850Z,16.70
2022-08-16T17:56:24.598Z,17.20
2022-08-16T17:58:53.012Z,17.80
2022-08-16T18:01:28.348Z,18.60
2022-08-16T18:04:07.205Z,18.40
2022-08-16T18:06:37.955Z,19.40
2022-08-16T18:09:07.661Z,19.30
2022-08-16T18:11:41.011Z,19.80
2022-08-16T18:14:11.631Z,20.70
2022-08-16T18:16:41.551Z,20.20
2022-08-16T18:19:11.006Z,20.50
2022-08-16T18:21:56.965Z,21.10
2022-08-16T18:24:29.300Z,21.60
2022-08-16T18:27:25.362Z,22.50
2022-08-16T18:29:49.816Z,22.80
2022-08-16T18:32:24.970Z,22.60
2022-08-16T18:34:54.168Z,22.80
2022-08-16T18:37:23.263Z,23.00
2022-08-16T18:39:51.899Z,23.20
2022-08-16T18:42:20.949Z,23.50
2022-08-16T18:44:49.693Z,23.80
2022-08-16T18:47:18.360Z,24.20
2022-08-16T18:49:48.170Z,24.40
2022-08-16T18:52:25.475Z,24.90
2022-08-16T18:55:02.819Z,25.70
2022-08-16T18:57:42.505Z,25.10
2022-08-16T19:00:13.394Z,25.20
2022-08-16T19:02:58.493Z,25.20
2022-08-16T19:05:34.054Z,25.30
2022-08-16T19:08:03.431Z,25.70
2022-08-16T19:10:33.753Z,26.10
2022-08-16T19:13:07.875Z,26.50
2022-08-16T19:15:36.996Z,27.00
2022-08-16T19:18:05.946Z,27.30
2022-08-16T19:20:35.837Z,27.50
2022-08-16T19:23:10.066Z,27.60
2022-08-16T19:25:48.841Z,27.80
2022-08-16T19:28:51.160Z,28.20
2022-08-16T19:31:17.783Z,28.50
2022-08-16T19:33:53.627Z,28.50
2022-08-16T19:36:31.068Z,29.40
2022-08-16T19:39:05.036Z,28.90
2022-08-16T19:41:36.662Z,29.40
2022-08-16T19:44:06.932Z,29.50
2022-08-16T19:46:36.161Z,29.70
2022-08-16T19:49:06.408Z,29.80
2022-08-16T19:51:37.626Z,30.00
2022-08-16T19:54:06.534Z,30.00
2022-08-16T19:56:34.959Z,30.60
2022-08-16T19:59:21.172Z,30.70
2022-08-16T20:01:53.184Z,30.90
2022-08-16T20:04:22.994Z,31.10
2022-08-16T20:06:54.520Z,31.40
2022-08-16T20:09:25.049Z,32.00
2022-08-16T20:11:55.581Z,32.10
2022-08-16T20:14:26.508Z,32.30
2022-08-16T20:16:57.887Z,32.40
2022-08-16T20:19:28.092Z,32.30
2022-08-16T20:22:02.024Z,32.50
2022-08-16T20:24:35.701Z,32.80
2022-08-16T20:27:08.767Z,33.00
2022-08-16T20:29:40.412Z,33.20
2022-08-16T20:32:12.540Z,33.30
2022-08-16T20:34:42.555Z,33.50
2022-08-16T20:37:15.180Z,33.90
2022-08-16T20:39:45.523Z,34.20
2022-08-16T20:42:15.242Z,34.30
2022-08-16T20:44:44.746Z,34.10
2022-08-16T20:47:15.174Z,33.90
2022-08-16T20:49:43.594Z,34.20
2022-08-16T20:52:16.939Z,34.30
2022-08-16T20:54:48.177Z,34.30
2022-08-16T20:57:17.505Z,34.40
2022-08-16T20:59:50.106Z,34.60
2022-08-16T21:02:28.393Z,34.70
2022-08-16T21:04:59.857Z,34.60
2022-08-16T21:07:30.208Z,34.70
2022-08-16T21:09:59.039Z,34.70
2022-08-16T21:12:28.266Z,35.20
2022-08-16T21:15:07.803Z,35.60
2022-08-16T21:17:36.238Z,35.60
2022-08-16T21:20:06.073Z,35.90
2022-08-16T21:22:40.488Z,36.30
2022-08-16T21:25:23.145Z,36.00
2022-08-16T21:28:41.621Z,35.90
2022-08-16T21:30:44.504Z,36.70
2022-08-16T21:33:16.748Z,37.00
2022-08-16T21:35:49.869Z,37.00
2022-08-16T21:38:29.236Z,37.20
2022-08-16T21:40:59.200Z,37.70
2022-08-16T21:43:31.937Z,37.90
2022-08-16T21:46:01.419Z,37.70
2022-08-16T21:48:33.761Z,37.70
2022-08-16T21:51:03.034Z,37.70
2022-08-16T21:53:33.992Z,37.80
2022-08-16T21:56:04.257Z,38.00
2022-08-16T21:58:33.252Z,37.90
2022-08-16T22:01:03.062Z,37.70
2022-08-16T22:03:33.186Z,37.60
2022-08-16T22:06:13.042Z,37.50
2022-08-16T22:08:47.849Z,37.60
2022-08-16T22:11:23.933Z,37.90
2022-08-16T22:13:58.586Z,37.70
2022-08-16T22:16:30.101Z,37.70
2022-08-16T22:18:58.806Z,37.50
2022-08-16T22:21:27.522Z,37.40
2022-08-16T22:23:58.796Z,37.60
2022-08-16T22:26:30.405Z,38.00
2022-08-16T22:29:01.234Z,38.20
2022-08-16T22:31:30.272Z,38.40
2022-08-16T22:33:58.901Z,38.20
2022-08-16T22:36:29.068Z,38.20
2022-08-16T22:39:01.031Z,38.20
2022-08-16T22:41:32.257Z,38.50
2022-08-16T22:44:02.064Z,38.60
2022-08-16T22:46:31.505Z,38.50
2022-08-16T22:49:00.432Z,38.40
2022-08-16T22:51:29.793Z,38.40
2022-08-16T22:54:00.346Z,38.40
2022-08-16T22:56:48.722Z,38.30
2022-08-16T22:59:17.236Z,38.40
2022-08-16T23:01:45.998Z,38.40
2022-08-16T23:04:14.437Z,38.50
2022-08-16T23:06:42.841Z,38.70
2022-08-16T23:09:12.649Z,38.60
2022-08-16T23:11:41.370Z,38.50
2022-08-16T23:14:09.922Z,38.60
2022-08-16T23:16:38.809Z,38.60
2022-08-16T23:19:10.191Z,38.50
2022-08-16T23:21:44.295Z,38.20
2022-08-16T23:24:17.674Z,38.10
2022-08-16T23:26:48.967Z,38.00
2022-08-16T23:29:24.477Z,38.20
2022-08-16T23:32:09.818Z,38.30
2022-08-16T23:34:38.368Z,38.80
2022-08-16T23:37:07.190Z,39.20
2022-08-16T23:39:37.039Z,39.40
2022-08-16T23:42:15.481Z,39.50
2022-08-16T23:45:04.492Z,39.60
2022-08-16T23:47:32.943Z,39.70
2022-08-16T23:50:04.070Z,39.70
2022-08-16T23:52:39.311Z,39.90
2022-08-16T23:55:23.326Z,40.70
2022-08-16T23:57:52.860Z,40.30
